createdAt,value
2019-01-08T00:01:14.893Z,-1.20
2019-01-08T00:03:47.526Z,-1.10
2019-01-08T00:06:20.273Z,-1.20
2019-01-08T00:08:52.982Z,-1.20
2019-01-08T00:11:25.826Z,-1.10
2019-01-08T00:13:59.907Z,-1.20
2019-01-08T00:16:32.461Z,-1.20
2019-01-08T00:19:05.091Z,-1.30
2019-01-08T00:21:37.566Z,-1.30
2019-01-08T00:24:10.197Z,-1.10
2019-01-08T00:26:42.652Z,-1.20
2019-01-08T00:29:15.194Z,-1.20
2019-01-08T00:31:47.488Z,-1.30
2019-01-08T00:34:20.050Z,-1.30
2019-01-08T00:36:52.555Z,-1.30
2019-01-08T00:39:24.941Z,-1.30
2019-01-08T00:41:57.328Z,-1.30
2019-01-08T00:44:30.277Z,-1.30
2019-01-08T00:47:02.953Z,-1.30
2019-01-08T00:49:35.517Z,-1.40
2019-01-08T00:52:08.207Z,-1.50
2019-01-08T00:54:40.592Z,-1.40
2019-01-08T00:57:12.923Z,-1.40
2019-01-08T00:59:45.654Z,-1.40
2019-01-08T01:02:18.196Z,-1.40
2019-01-08T01:04:50.830Z,-1.40
2019-01-08T01:07:23.306Z,-1.40
2019-01-08T01:09:57.397Z,-1.50
2019-01-08T01:12:48.374Z,-1.50
2019-01-08T01:15:20.779Z,-1.50
2019-01-08T01:17:53.276Z,-1.50
2019-01-08T01:20:25.764Z,-1.50
2019-01-08T01:22:58.256Z,-1.50
2019-01-08T01:25:30.952Z,-1.60
2019-01-08T01:28:03.408Z,-1.50
2019-01-08T01:30:36.491Z,-1.50
2019-01-08T01:33:09.127Z,-1.50
2019-01-08T01:35:41.828Z,-1.50
2019-01-08T01:38:14.352Z,-1.50
2019-01-08T01:40:47.452Z,-1.40
2019-01-08T01:43:19.937Z,-1.40
2019-01-08T01:45:52.388Z,-1.50
2019-01-08T01:48:24.890Z,-1.50
2019-01-08T01:50:59.489Z,-1.50
2019-01-08T01:53:31.896Z,-1.60
2019-01-08T01:56:04.423Z,-1.60
2019-01-08T01:58:37.226Z,-1.60
2019-01-08T02:01:10.131Z,-1.60
2019-01-08T02:03:42.783Z,-1.60
2019-01-08T02:06:16.721Z,-1.70
2019-01-08T02:08:49.276Z,-1.60
2019-01-08T02:11:21.799Z,-1.60
2019-01-08T02:13:54.553Z,-1.70
2019-01-08T02:16:27.210Z,-1.70
2019-01-08T02:19:00.124Z,-1.70
2019-01-08T02:21:34.437Z,-1.70
2019-01-08T02:24:06.919Z,-1.60
2019-01-08T02:26:39.317Z,-1.60
2019-01-08T02:29:16.522Z,-1.60
2019-01-08T02:31:45.814Z,-1.70
2019-01-08T02:34:18.270Z,-1.70
2019-01-08T02:36:51.618Z,-1.70
2019-01-08T02:39:24.233Z,-1.70
2019-01-08T02:41:56.863Z,-1.70
2019-01-08T02:44:29.670Z,-1.70
2019-01-08T02:47:02.205Z,-1.60
2019-01-08T02:49:34.802Z,-1.60
2019-01-08T02:52:07.440Z,-1.70
2019-01-08T02:54:39.989Z,-1.80
2019-01-08T02:57:12.639Z,-1.80
2019-01-08T02:59:45.357Z,-1.90
2019-01-08T03:02:17.719Z,-1.90
2019-01-08T03:04:51.961Z,-1.90
2019-01-08T03:07:24.398Z,-2.00
2019-01-08T03:09:56.902Z,-1.90
2019-01-08T03:12:29.389Z,-1.80
2019-01-08T03:15:02.425Z,-1.90
2019-01-08T03:17:34.941Z,-1.80
2019-01-08T03:20:07.688Z,-1.70
2019-01-08T03:22:40.374Z,-1.80
2019-01-08T03:25:12.783Z,-1.70
2019-01-08T03:27:45.586Z,-1.80
2019-01-08T03:30:18.011Z,-1.80
2019-01-08T03:32:50.587Z,-1.70
2019-01-08T03:35:22.984Z,-1.80
2019-01-08T03:37:55.626Z,-1.80
2019-01-08T03:40:28.136Z,-1.70
2019-01-08T03:43:00.801Z,-1.70
2019-01-08T03:45:35.044Z,-1.60
2019-01-08T03:48:07.643Z,-1.60
2019-01-08T03:50:40.470Z,-1.60
2019-01-08T03:53:13.259Z,-1.70
2019-01-08T03:55:45.824Z,-1.60
2019-01-08T03:58:18.425Z,-1.70
2019-01-08T04:00:52.659Z,-1.70
2019-01-08T04:03:25.256Z,-1.70
2019-01-08T04:05:58.061Z,-1.70
2019-01-08T04:08:30.939Z,-1.60
2019-01-08T04:11:03.828Z,-1.70
2019-01-08T04:13:36.304Z,-1.60
2019-01-08T04:16:08.820Z,-1.70
2019-01-08T04:18:41.315Z,-1.70
2019-01-08T04:21:13.727Z,-1.90
2019-01-08T04:23:46.269Z,-1.90
2019-01-08T04:26:20.747Z,-1.70
2019-01-08T04:28:53.344Z,-1.80
2019-01-08T04:31:25.790Z,-1.70
2019-01-08T04:33:58.345Z,-1.70
2019-01-08T04:36:30.730Z,-1.70
2019-01-08T04:39:03.389Z,-1.80
2019-01-08T04:41:35.852Z,-1.80
2019-01-08T04:44:08.410Z,-1.90
2019-01-08T04:46:41.111Z,-1.80
2019-01-08T04:49:13.729Z,-1.70
2019-01-08T04:51:46.090Z,-1.70
2019-01-08T04:54:18.686Z,-1.80
2019-01-08T04:56:51.482Z,-1.80
2019-01-08T04:59:24.046Z,-1.80
2019-01-08T05:01:56.667Z,-1.80
2019-01-08T05:04:29.457Z,-1.80
2019-01-08T05:07:02.211Z,-1.90
2019-01-08T05:09:34.708Z,-1.90
2019-01-08T05:12:07.256Z,-2.00
2019-01-08T05:14:40.348Z,-2.00
2019-01-08T05:17:12.717Z,-1.90
2019-01-08T05:19:45.520Z,-2.00
2019-01-08T05:22:18.086Z,-2.00
2019-01-08T05:24:50.497Z,-2.00
2019-01-08T05:27:22.964Z,-2.00
2019-01-08T05:29:55.532Z,-2.00
2019-01-08T05:32:27.995Z,-2.10
2019-01-08T05:35:00.619Z,-2.10
2019-01-08T05:37:33.008Z,-2.10
2019-01-08T05:40:05.669Z,-2.00
2019-01-08T05:42:38.188Z,-2.10
2019-01-08T05:45:11.081Z,-2.00
2019-01-08T05:47:43.523Z,-2.00
2019-01-08T05:50:15.990Z,-2.00
2019-01-08T05:52:48.609Z,-1.90
2019-01-08T05:55:21.287Z,-1.90
2019-01-08T05:57:53.767Z,-1.90
2019-01-08T06:00:37.714Z,-2.10
2019-01-08T06:03:10.403Z,-2.00
2019-01-08T06:05:43.515Z,-2.00
2019-01-08T06:08:16.168Z,-2.10
2019-01-08T06:10:49.106Z,-2.10
2019-01-08T06:13:21.749Z,-2.10
2019-01-08T06:15:54.448Z,-2.10
2019-01-08T06:18:37.956Z,-2.10
2019-01-08T06:21:10.613Z,-2.10
2019-01-08T06:23:43.202Z,-2.10
2019-01-08T06:26:15.726Z,-2.10
2019-01-08T06:28:48.170Z,-2.20
2019-01-08T06:31:22.653Z,-2.20
2019-01-08T06:34:13.803Z,-2.20
2019-01-08T06:36:46.411Z,-2.20
2019-01-08T06:39:19.061Z,-2.20
2019-01-08T06:41:51.770Z,-2.20
2019-01-08T06:44:24.749Z,-2.30
2019-01-08T06:46:57.220Z,-2.30
2019-01-08T06:49:29.794Z,-2.30
2019-01-08T06:52:02.225Z,-2.30
2019-01-08T06:54:35.030Z,-2.30
2019-01-08T06:57:07.986Z,-2.20
2019-01-08T06:59:40.779Z,-2.20
2019-01-08T07:02:13.487Z,-1.90
2019-01-08T07:04:46.701Z,-1.90
2019-01-08T07:07:19.386Z,-1.80
2019-01-08T07:09:52.180Z,-1.90
2019-01-08T07:12:24.891Z,-1.90
2019-01-08T07:14:57.531Z,-2.00
2019-01-08T07:17:30.069Z,-2.10
2019-01-08T07:20:03.148Z,-2.20
2019-01-08T07:22:37.760Z,-2.20
2019-01-08T07:25:10.985Z,-2.20
2019-01-08T07:27:43.730Z,-2.20
2019-01-08T07:30:16.442Z,-2.20
2019-01-08T07:32:49.317Z,-2.30
2019-01-08T07:35:21.894Z,-2.20
2019-01-08T07:38:05.206Z,-2.30
2019-01-08T07:40:37.901Z,-2.30
2019-01-08T07:43:11.143Z,-2.30
2019-01-08T07:45:43.748Z,-2.30
2019-01-08T07:48:16.536Z,-2.30
2019-01-08T07:50:49.356Z,-2.30
2019-01-08T07:53:23.209Z,-2.20
2019-01-08T07:55:55.628Z,-2.20
2019-01-08T07:58:29.661Z,-2.20
2019-01-08T08:01:13.120Z,-2.20
2019-01-08T08:03:48.412Z,-2.30
2019-01-08T08:06:21.527Z,-2.40
2019-01-08T08:08:54.172Z,-2.30
2019-01-08T08:11:29.727Z,-2.20
2019-01-08T08:14:02.228Z,-2.20
2019-01-08T08:16:34.760Z,-2.20
2019-01-08T08:19:08.186Z,-2.10
2019-01-08T08:21:40.879Z,-2.20
2019-01-08T08:24:13.358Z,-2.10
2019-01-08T08:26:46.079Z,-2.20
2019-01-08T08:29:18.957Z,-2.20
2019-01-08T08:31:51.541Z,-2.20
2019-01-08T08:34:24.145Z,-2.20
2019-01-08T08:36:56.846Z,-2.20
2019-01-08T08:39:36.887Z,-2.20
2019-01-08T08:42:10.461Z,-2.20
2019-01-08T08:44:43.001Z,-2.10
2019-01-08T08:47:15.634Z,-2.10
2019-01-08T08:49:48.602Z,-2.20
2019-01-08T08:52:21.472Z,-2.20
2019-01-08T08:54:54.148Z,-2.20
2019-01-08T08:57:26.977Z,-2.20
2019-01-08T08:59:59.957Z,-2.20
2019-01-08T09:02:32.697Z,-2.20
2019-01-08T09:05:05.430Z,-2.40
2019-01-08T09:07:37.801Z,-2.30
2019-01-08T09:10:10.295Z,-2.30
2019-01-08T09:12:42.802Z,-2.30
2019-01-08T09:15:15.641Z,-2.30
2019-01-08T09:17:48.402Z,-2.30
2019-01-08T09:20:20.954Z,-2.20
2019-01-08T09:22:53.454Z,-2.20
2019-01-08T09:25:26.143Z,-2.20
2019-01-08T09:27:58.625Z,-2.10
2019-01-08T09:30:31.406Z,-2.20
2019-01-08T09:33:03.997Z,-2.20
2019-01-08T09:35:37.032Z,-2.20
2019-01-08T09:38:09.561Z,-2.10
2019-01-08T09:40:42.136Z,-2.00
2019-01-08T09:43:14.933Z,-2.00
2019-01-08T09:45:47.729Z,-2.10
2019-01-08T09:48:21.993Z,-2.00
2019-01-08T09:50:54.880Z,-2.10
2019-01-08T09:53:27.602Z,-2.00
2019-01-08T09:56:00.033Z,-2.00
2019-01-08T09:58:32.618Z,-1.90
2019-01-08T10:01:05.375Z,-1.90
2019-01-08T10:03:37.846Z,-1.80
2019-01-08T10:06:10.342Z,-1.80
2019-01-08T10:08:42.842Z,-1.70
2019-01-08T10:11:15.323Z,-1.70
2019-01-08T10:13:47.898Z,-1.60
2019-01-08T10:16:20.412Z,-1.70
2019-01-08T10:18:53.368Z,-1.60
2019-01-08T10:21:25.808Z,-1.60
2019-01-08T10:23:58.451Z,-1.60
2019-01-08T10:26:30.931Z,-1.60
2019-01-08T10:29:03.563Z,-1.60
2019-01-08T10:31:37.604Z,-1.50
2019-01-08T10:34:10.360Z,-1.50
2019-01-08T10:36:42.918Z,-1.60
2019-01-08T10:39:15.460Z,-1.60
2019-01-08T10:41:47.850Z,-1.60
2019-01-08T10:44:20.360Z,-1.50
2019-01-08T10:46:52.984Z,-1.50
2019-01-08T10:49:25.482Z,-1.50
2019-01-08T10:51:58.110Z,-1.40
2019-01-08T10:54:30.772Z,-1.40
2019-01-08T10:57:05.211Z,-1.50
2019-01-08T10:59:38.176Z,-1.50
2019-01-08T11:02:10.620Z,-1.60
2019-01-08T11:04:43.291Z,-1.60
2019-01-08T11:07:15.693Z,-1.50
2019-01-08T11:09:48.152Z,-1.50
2019-01-08T11:12:20.687Z,-1.50
2019-01-08T11:14:53.440Z,-1.50
2019-01-08T11:17:25.974Z,-1.50
2019-01-08T11:19:58.646Z,-1.50
2019-01-08T11:22:31.215Z,-1.50
2019-01-08T11:25:03.895Z,-1.50
2019-01-08T11:27:36.528Z,-1.40
2019-01-08T11:30:09.749Z,-1.40
2019-01-08T11:32:42.520Z,-1.40
2019-01-08T11:35:15.472Z,-1.40
2019-01-08T11:37:48.136Z,-1.40
2019-01-08T11:40:20.633Z,-1.40
2019-01-08T11:42:53.336Z,-1.40
2019-01-08T11:45:25.646Z,-1.30
2019-01-08T11:48:03.846Z,-1.40
2019-01-08T11:50:33.759Z,-1.40
2019-01-08T11:53:06.409Z,-1.40
2019-01-08T11:55:38.791Z,-1.40
2019-01-08T11:58:11.881Z,-1.40
2019-01-08T12:00:44.296Z,-1.40
2019-01-08T12:03:16.783Z,-1.30
2019-01-08T12:05:49.244Z,-1.10
2019-01-08T12:08:22.061Z,-1.10
2019-01-08T12:10:54.981Z,-1.10
2019-01-08T12:13:27.670Z,-1.20
2019-01-08T12:16:00.125Z,-1.20
2019-01-08T12:18:32.441Z,-1.10
2019-01-08T12:21:04.915Z,-1.20
2019-01-08T12:23:37.431Z,-1.20
2019-01-08T12:26:10.111Z,-1.10
2019-01-08T12:28:42.713Z,-1.20
2019-01-08T12:31:15.471Z,-1.10
2019-01-08T12:33:48.067Z,-1.00
2019-01-08T12:36:20.585Z,-1.00
2019-01-08T12:38:53.151Z,-1.10
2019-01-08T12:41:25.686Z,-1.00
2019-01-08T12:43:59.636Z,-0.80
2019-01-08T12:46:32.130Z,-0.80
2019-01-08T12:49:04.698Z,-0.70
2019-01-08T12:51:37.318Z,-0.70
2019-01-08T12:54:09.932Z,-0.80
2019-01-08T12:56:42.583Z,-0.80
2019-01-08T12:59:15.250Z,-0.90
2019-01-08T13:01:47.801Z,-0.90
2019-01-08T13:04:20.467Z,-0.90
2019-01-08T13:06:53.138Z,-0.80
2019-01-08T13:09:25.581Z,-0.80
2019-01-08T13:11:58.269Z,-0.80
2019-01-08T13:14:31.259Z,-0.70
2019-01-08T13:17:11.417Z,-0.80
2019-01-08T13:19:38.326Z,-0.80
2019-01-08T13:22:10.761Z,-0.90
2019-01-08T13:24:43.161Z,-0.80
2019-01-08T13:27:15.507Z,-0.90
2019-01-08T13:29:48.059Z,-1.00
2019-01-08T13:32:23.217Z,-1.00
2019-01-08T13:34:54.756Z,-1.00
2019-01-08T13:37:27.205Z,-1.00
2019-01-08T13:39:59.714Z,-1.00
2019-01-08T13:42:32.265Z,-1.00
2019-01-08T13:45:05.262Z,-1.00
2019-01-08T13:47:37.782Z,-1.00
2019-01-08T13:50:11.259Z,-1.10
2019-01-08T13:52:43.618Z,-1.10
2019-01-08T13:55:16.010Z,-1.10
2019-01-08T13:57:48.779Z,-1.10
2019-01-08T14:00:22.808Z,-1.10
2019-01-08T14:02:55.494Z,-1.20
2019-01-08T14:05:27.931Z,-1.20
2019-01-08T14:08:00.516Z,-1.10
2019-01-08T14:10:33.087Z,-1.20
2019-01-08T14:13:05.601Z,-1.10
2019-01-08T14:15:38.254Z,-1.10
2019-01-08T14:18:11.051Z,-1.10
2019-01-08T14:20:43.598Z,-1.20
2019-01-08T14:23:16.089Z,-1.30
2019-01-08T14:25:48.753Z,-1.30
2019-01-08T14:28:21.435Z,-1.20
2019-01-08T14:30:54.018Z,-1.20
2019-01-08T14:33:26.586Z,-1.30
2019-01-08T14:36:11.970Z,-1.30
2019-01-08T14:38:44.617Z,-1.40
2019-01-08T14:41:17.319Z,-1.40
2019-01-08T14:43:50.012Z,-1.30
2019-01-08T14:46:23.010Z,-1.40
2019-01-08T14:48:55.707Z,-1.40
2019-01-08T14:51:28.065Z,-1.40
2019-01-08T14:54:00.515Z,-1.30
2019-01-08T14:56:33.007Z,-1.30
2019-01-08T14:59:06.024Z,-1.40
2019-01-08T15:01:38.840Z,-1.50
2019-01-08T15:04:11.507Z,-1.50
2019-01-08T15:06:44.170Z,-1.60
2019-01-08T15:09:16.965Z,-1.50
2019-01-08T15:11:49.727Z,-1.60
2019-01-08T15:14:22.487Z,-1.60
2019-01-08T15:16:54.889Z,-1.50
2019-01-08T15:19:27.322Z,-1.50
2019-01-08T15:21:59.754Z,-1.60
2019-01-08T15:24:32.152Z,-1.60
2019-01-08T15:27:04.673Z,-1.50
2019-01-08T15:29:37.566Z,-1.50
2019-01-08T15:32:10.115Z,-1.50
2019-01-08T15:34:42.804Z,-1.40
2019-01-08T15:37:14.960Z,-1.50
2019-01-08T15:39:47.918Z,-1.60
2019-01-08T15:42:20.842Z,-1.50
2019-01-08T15:44:53.560Z,-1.50
2019-01-08T15:47:26.195Z,-1.50
2019-01-08T15:49:58.748Z,-1.50
2019-01-08T15:52:31.260Z,-1.40
2019-01-08T15:55:04.050Z,-1.40
2019-01-08T15:57:36.728Z,-1.30
2019-01-08T16:00:10.320Z,-1.30
2019-01-08T16:02:42.878Z,-1.40
2019-01-08T16:05:15.583Z,-1.50
2019-01-08T16:07:48.255Z,-1.50
2019-01-08T16:10:20.962Z,-1.40
2019-01-08T16:12:53.369Z,-1.40
2019-01-08T16:15:25.826Z,-1.40
2019-01-08T16:17:58.284Z,-1.40
2019-01-08T16:20:31.492Z,-1.40
2019-01-08T16:23:03.804Z,-1.40
2019-01-08T16:25:36.284Z,-1.40
2019-01-08T16:28:08.842Z,-1.50
2019-01-08T16:30:41.346Z,-1.50
2019-01-08T16:33:16.097Z,-1.50
2019-01-08T16:35:47.941Z,-1.40
2019-01-08T16:38:20.398Z,-1.40
2019-01-08T16:40:53.041Z,-1.40
2019-01-08T16:43:25.745Z,-1.30
2019-01-08T16:45:59.824Z,-1.30
2019-01-08T16:48:32.598Z,-1.20
2019-01-08T16:51:05.078Z,-1.20
2019-01-08T16:53:48.479Z,-1.20
2019-01-08T16:56:21.425Z,-1.20
2019-01-08T16:58:53.869Z,-1.20
2019-01-08T17:01:26.312Z,-1.10
2019-01-08T17:03:59.145Z,-1.10
2019-01-08T17:06:31.695Z,-1.00
2019-01-08T17:09:05.532Z,-1.00
2019-01-08T17:11:38.023Z,-1.00
2019-01-08T17:14:10.943Z,-1.00
2019-01-08T17:16:43.766Z,-0.90
2019-01-08T17:19:16.473Z,-0.90
2019-01-08T17:21:48.902Z,-0.90
2019-01-08T17:24:21.525Z,-0.90
2019-01-08T17:26:53.879Z,-0.80
2019-01-08T17:29:26.519Z,-0.90
2019-01-08T17:31:58.967Z,-1.00
2019-01-08T17:34:31.614Z,-1.10
2019-01-08T17:37:03.992Z,-1.20
2019-01-08T17:39:36.773Z,-1.20
2019-01-08T17:42:09.428Z,-1.30
2019-01-08T17:44:42.228Z,-1.40
2019-01-08T17:47:14.728Z,-1.50
2019-01-08T17:49:47.312Z,-1.50
2019-01-08T17:52:19.954Z,-1.50
2019-01-08T17:54:52.540Z,-1.50
2019-01-08T17:57:25.538Z,-1.50
2019-01-08T17:59:58.541Z,-1.50
2019-01-08T18:02:31.060Z,-1.50
2019-01-08T18:05:03.998Z,-1.50
2019-01-08T18:07:36.675Z,-1.50
2019-01-08T18:10:10.586Z,-1.50
2019-01-08T18:12:43.247Z,-1.50
2019-01-08T18:15:17.083Z,-1.50
2019-01-08T18:17:49.477Z,-1.60
2019-01-08T18:20:22.277Z,-1.60
2019-01-08T18:22:54.909Z,-1.60
2019-01-08T18:25:27.617Z,-1.50
2019-01-08T18:28:00.203Z,-1.60
2019-01-08T18:30:33.404Z,-1.60
2019-01-08T18:33:05.924Z,-1.70
2019-01-08T18:35:38.495Z,-1.60
2019-01-08T18:38:11.525Z,-1.60
2019-01-08T18:40:44.147Z,-1.50
2019-01-08T18:43:16.946Z,-1.50
2019-01-08T18:45:49.713Z,-1.40
2019-01-08T18:48:22.460Z,-1.10
2019-01-08T18:50:55.271Z,-0.90
2019-01-08T18:53:27.913Z,-1.10
2019-01-08T18:56:00.304Z,-1.30
2019-01-08T18:58:33.124Z,-1.40
2019-01-08T19:01:06.068Z,-1.60
2019-01-08T19:03:38.678Z,-1.60
2019-01-08T19:06:11.512Z,-1.60
2019-01-08T19:09:38.309Z,-1.60
2019-01-08T19:12:24.293Z,-1.70
2019-01-08T19:14:57.167Z,-1.60
2019-01-08T19:17:31.696Z,-1.60
2019-01-08T19:20:04.491Z,-1.70
2019-01-08T19:22:37.241Z,-1.70
2019-01-08T19:25:09.842Z,-1.70
2019-01-08T19:27:42.247Z,-1.70
2019-01-08T19:30:15.016Z,-1.70
2019-01-08T19:32:47.698Z,-1.70
2019-01-08T19:35:20.604Z,-1.70
2019-01-08T19:37:53.488Z,-1.60
2019-01-08T19:40:27.403Z,-1.60
2019-01-08T19:42:59.975Z,-1.60
2019-01-08T19:45:32.822Z,-1.60
2019-01-08T19:48:05.348Z,-1.40
2019-01-08T19:50:37.929Z,-1.40
2019-01-08T19:53:10.966Z,-1.40
2019-01-08T19:55:45.137Z,-1.50
2019-01-08T19:58:17.669Z,-1.60
2019-01-08T20:00:50.167Z,-1.60
2019-01-08T20:03:22.997Z,-1.70
2019-01-08T20:05:55.543Z,-1.70
2019-01-08T20:08:28.276Z,-1.70
2019-01-08T20:11:00.988Z,-1.70
2019-01-08T20:13:33.515Z,-1.70
2019-01-08T20:16:06.297Z,-1.70
2019-01-08T20:18:45.154Z,-1.70
2019-01-08T20:21:13.379Z,-1.70
2019-01-08T20:23:45.870Z,-1.60
2019-01-08T20:26:18.364Z,-1.50
2019-01-08T20:28:51.169Z,-1.50
2019-01-08T20:31:23.693Z,-1.50
2019-01-08T20:33:56.408Z,-1.50
2019-01-08T20:36:28.924Z,-1.60
2019-01-08T20:39:01.326Z,-1.60
2019-01-08T20:41:34.311Z,-1.50
2019-01-08T20:44:06.969Z,-1.50
2019-01-08T20:46:39.776Z,-1.60
2019-01-08T20:49:12.655Z,-1.60
2019-01-08T20:51:45.340Z,-1.60
2019-01-08T20:54:18.004Z,-1.60
2019-01-08T20:56:50.518Z,-1.60
2019-01-08T20:59:23.012Z,-1.60
2019-01-08T21:01:55.614Z,-1.50
2019-01-08T21:04:35.360Z,-1.50
2019-01-08T21:07:02.458Z,-1.40
2019-01-08T21:09:35.456Z,-1.30
2019-01-08T21:12:07.969Z,-1.40
2019-01-08T21:14:40.654Z,-1.50
2019-01-08T21:17:13.441Z,-1.50
2019-01-08T21:19:46.479Z,-1.60
2019-01-08T21:22:19.171Z,-1.70
2019-01-08T21:24:51.884Z,-1.70
2019-01-08T21:27:24.559Z,-1.70
2019-01-08T21:29:57.301Z,-1.70
2019-01-08T21:32:30.474Z,-1.70
2019-01-08T21:35:03.144Z,-1.80
2019-01-08T21:37:35.992Z,-1.90
2019-01-08T21:40:08.782Z,-1.90
2019-01-08T21:42:41.266Z,-1.90
2019-01-08T21:45:14.350Z,-1.80
2019-01-08T21:47:46.897Z,-1.80
2019-01-08T21:50:19.373Z,-1.80
2019-01-08T21:52:52.924Z,-1.90
2019-01-08T21:55:25.539Z,-2.00
2019-01-08T21:58:08.974Z,-1.90
2019-01-08T22:00:43.247Z,-1.90
2019-01-08T22:03:16.216Z,-1.80
2019-01-08T22:05:48.864Z,-1.70
2019-01-08T22:08:21.563Z,-1.80
2019-01-08T22:10:54.194Z,-1.90
2019-01-08T22:13:26.884Z,-1.90
2019-01-08T22:16:09.573Z,-1.90
2019-01-08T22:18:53.004Z,-1.90
2019-01-08T22:21:36.769Z,-1.90
2019-01-08T22:24:09.700Z,-1.40
2019-01-08T22:26:42.293Z,-0.80
2019-01-08T22:29:15.083Z,-1.00
2019-01-08T22:31:47.846Z,-1.20
2019-01-08T22:34:23.636Z,-1.50
2019-01-08T22:36:56.132Z,-1.50
2019-01-08T22:39:28.768Z,-1.60
2019-01-08T22:42:01.389Z,-1.60
2019-01-08T22:44:34.103Z,-1.70
2019-01-08T22:47:06.779Z,-1.60
2019-01-08T22:49:39.526Z,-1.20
2019-01-08T22:52:12.423Z,-0.70
2019-01-08T22:54:44.953Z,-0.20
2019-01-08T22:57:17.403Z,0.30
2019-01-08T22:59:50.238Z,0.70
2019-01-08T23:02:22.594Z,1.10
2019-01-08T23:04:54.967Z,1.40
2019-01-08T23:07:27.439Z,1.50
2019-01-08T23:10:01.341Z,1.80
2019-01-08T23:12:34.202Z,1.90
2019-01-08T23:15:07.343Z,2.00
2019-01-08T23:17:39.915Z,2.10
2019-01-08T23:20:13.903Z,2.10
2019-01-08T23:22:46.448Z,2.10
2019-01-08T23:25:18.774Z,2.10
2019-01-08T23:27:51.442Z,2.10
2019-01-08T23:30:24.108Z,2.10
2019-01-08T23:32:56.733Z,2.20
2019-01-08T23:35:29.291Z,2.30
2019-01-08T23:38:02.025Z,2.30
2019-01-08T23:40:34.742Z,2.30
2019-01-08T23:43:08.705Z,2.40
2019-01-08T23:45:41.239Z,2.40
2019-01-08T23:48:13.704Z,2.50
2019-01-08T23:50:46.049Z,2.50
2019-01-08T23:53:37.068Z,2.50
2019-01-08T23:56:10.587Z,2.50
2019-01-08T23:58:43.170Z,2.60
